sensor_id;sensor_type;location;lat;lon;timestamp;P1;durP1;ratioP1;P2;durP2;ratioP2
60919;SDS011;59039;52.108;19.942;2024-03-02T00:00:48;41.70;;;21.90;;
60919;SDS011;59039;52.108;19.942;2024-03-02T00:03:14;45.70;;;22.10;;
60919;SDS011;59039;52.108;19.942;2024-03-02T00:05:39;46.10;;;23.30;;
60919;SDS011;59039;52.108;19.942;2024-03-02T00:08:05;40.80;;;22.20;;
60919;SDS011;59039;52.108;19.942;2024-03-02T00:10:38;41.40;;;22.10;;
60919;SDS011;59039;52.108;19.942;2024-03-02T00:13:04;41.60;;;21.80;;
60919;SDS011;59039;52.108;19.942;2024-03-02T00:18:00;47.40;;;25.40;;
60919;SDS011;59039;52.108;19.942;2024-03-02T00:20:26;47.10;;;25.00;;
60919;SDS011;59039;52.108;19.942;2024-03-02T00:22:51;49.70;;;25.60;;
60919;SDS011;59039;52.108;19.942;2024-03-02T00:25:16;47.60;;;24.80;;
60919;SDS011;59039;52.108;19.942;2024-03-02T00:27:42;54.10;;;29.20;;
60919;SDS011;59039;52.108;19.942;2024-03-02T00:30:40;53.80;;;28.50;;
60919;SDS011;59039;52.108;19.942;2024-03-02T00:33:01;57.90;;;28.80;;
60919;SDS011;59039;52.108;19.942;2024-03-02T00:35:26;59.70;;;31.10;;
60919;SDS011;59039;52.108;19.942;2024-03-02T00:37:52;51.20;;;27.10;;
60919;SDS011;59039;52.108;19.942;2024-03-02T00:40:17;60.30;;;31.40;;
60919;SDS011;59039;52.108;19.942;2024-03-02T00:42:42;49.50;;;27.50;;
60919;SDS011;59039;52.108;19.942;2024-03-02T00:45:08;54.10;;;26.90;;
60919;SDS011;59039;52.108;19.942;2024-03-02T00:47:37;49.00;;;24.70;;
60919;SDS011;59039;52.108;19.942;2024-03-02T00:50:04;53.00;;;27.70;;
60919;SDS011;59039;52.108;19.942;2024-03-02T00:52:30;50.80;;;28.00;;
60919;SDS011;59039;52.108;19.942;2024-03-02T00:54:56;59.90;;;29.80;;
60919;SDS011;59039;52.108;19.942;2024-03-02T00:57:22;60.40;;;30.10;;
60919;SDS011;59039;52.108;19.942;2024-03-02T00:59:48;60.30;;;32.60;;
60919;SDS011;59039;52.108;19.942;2024-03-02T01:02:13;64.70;;;33.10;;
60919;SDS011;59039;52.108;19.942;2024-03-02T01:04:39;57.40;;;30.00;;
60919;SDS011;59039;52.108;19.942;2024-03-02T01:07:04;61.90;;;33.60;;
60919;SDS011;59039;52.108;19.942;2024-03-02T01:09:29;62.00;;;34.00;;
60919;SDS011;59039;52.108;19.942;2024-03-02T01:11:54;56.20;;;28.00;;
60919;SDS011;59039;52.108;19.942;2024-03-02T01:14:20;49.80;;;27.30;;
60919;SDS011;59039;52.108;19.942;2024-03-02T01:16:45;46.00;;;25.80;;
60919;SDS011;59039;52.108;19.942;2024-03-02T01:19:10;47.00;;;24.00;;
60919;SDS011;59039;52.108;19.942;2024-03-02T01:21:35;37.80;;;20.80;;
60919;SDS011;59039;52.108;19.942;2024-03-02T01:24:01;50.10;;;23.70;;
60919;SDS011;59039;52.108;19.942;2024-03-02T01:26:26;39.60;;;22.10;;
60919;SDS011;59039;52.108;19.942;2024-03-02T01:28:51;39.10;;;19.70;;
60919;SDS011;59039;52.108;19.942;2024-03-02T01:31:16;46.60;;;23.00;;
60919;SDS011;59039;52.108;19.942;2024-03-02T01:33:41;43.00;;;22.20;;
60919;SDS011;59039;52.108;19.942;2024-03-02T01:36:07;45.10;;;23.20;;
60919;SDS011;59039;52.108;19.942;2024-03-02T01:38:32;46.40;;;23.20;;
60919;SDS011;59039;52.108;19.942;2024-03-02T01:40:57;38.60;;;19.50;;
60919;SDS011;59039;52.108;19.942;2024-03-02T01:43:22;39.30;;;22.60;;
60919;SDS011;59039;52.108;19.942;2024-03-02T01:45:47;43.80;;;23.50;;
60919;SDS011;59039;52.108;19.942;2024-03-02T01:48:13;44.40;;;23.90;;
60919;SDS011;59039;52.108;19.942;2024-03-02T01:50:38;42.80;;;23.20;;
60919;SDS011;59039;52.108;19.942;2024-03-02T01:53:03;44.10;;;23.40;;
60919;SDS011;59039;52.108;19.942;2024-03-02T01:55:29;43.50;;;23.40;;
60919;SDS011;59039;52.108;19.942;2024-03-02T01:57:54;43.60;;;23.00;;
60919;SDS011;59039;52.108;19.942;2024-03-02T02:00:19;48.40;;;24.40;;
60919;SDS011;59039;52.108;19.942;2024-03-02T02:02:46;42.90;;;22.70;;
60919;SDS011;59039;52.108;19.942;2024-03-02T02:05:12;46.40;;;22.00;;
60919;SDS011;59039;52.108;19.942;2024-03-02T02:07:38;43.70;;;21.80;;
60919;SDS011;59039;52.108;19.942;2024-03-02T02:10:03;47.30;;;23.00;;
60919;SDS011;59039;52.108;19.942;2024-03-02T02:12:28;40.80;;;22.10;;
60919;SDS011;59039;52.108;19.942;2024-03-02T02:14:54;42.40;;;21.50;;
60919;SDS011;59039;52.108;19.942;2024-03-02T02:17:19;43.10;;;21.80;;
60919;SDS011;59039;52.108;19.942;2024-03-02T02:19:44;47.90;;;24.50;;
60919;SDS011;59039;52.108;19.942;2024-03-02T02:22:10;46.50;;;22.70;;
60919;SDS011;59039;52.108;19.942;2024-03-02T02:24:36;48.10;;;23.80;;
60919;SDS011;59039;52.108;19.942;2024-03-02T02:27:04;41.30;;;22.70;;
60919;SDS011;59039;52.108;19.942;2024-03-02T02:29:29;45.00;;;23.30;;
60919;SDS011;59039;52.108;19.942;2024-03-02T02:31:54;44.50;;;22.60;;
60919;SDS011;59039;52.108;19.942;2024-03-02T02:34:20;44.20;;;23.30;;
60919;SDS011;59039;52.108;19.942;2024-03-02T02:36:45;47.30;;;23.70;;
60919;SDS011;59039;52.108;19.942;2024-03-02T02:39:11;47.60;;;23.90;;
60919;SDS011;59039;52.108;19.942;2024-03-02T02:41:40;48.70;;;23.20;;
60919;SDS011;59039;52.108;19.942;2024-03-02T02:44:05;45.40;;;23.70;;
60919;SDS011;59039;52.108;19.942;2024-03-02T02:46:30;46.40;;;24.40;;
60919;SDS011;59039;52.108;19.942;2024-03-02T02:48:55;51.10;;;23.00;;
60919;SDS011;59039;52.108;19.942;2024-03-02T02:51:21;45.70;;;24.20;;
60919;SDS011;59039;52.108;19.942;2024-03-02T02:53:46;46.40;;;22.60;;
60919;SDS011;59039;52.108;19.942;2024-03-02T02:56:11;47.50;;;23.10;;
60919;SDS011;59039;52.108;19.942;2024-03-02T02:58:36;51.00;;;23.80;;
60919;SDS011;59039;52.108;19.942;2024-03-02T03:01:02;42.80;;;22.80;;
60919;SDS011;59039;52.108;19.942;2024-03-02T03:03:27;48.40;;;23.50;;
60919;SDS011;59039;52.108;19.942;2024-03-02T03:05:52;43.80;;;22.90;;
60919;SDS011;59039;52.108;19.942;2024-03-02T03:08:17;45.00;;;22.80;;
60919;SDS011;59039;52.108;19.942;2024-03-02T03:10:43;45.80;;;22.40;;
60919;SDS011;59039;52.108;19.942;2024-03-02T03:13:08;44.30;;;22.90;;
60919;SDS011;59039;52.108;19.942;2024-03-02T03:15:36;45.50;;;23.50;;
60919;SDS011;59039;52.108;19.942;2024-03-02T03:18:02;45.70;;;24.90;;
60919;SDS011;59039;52.108;19.942;2024-03-02T03:20:30;41.90;;;22.70;;
60919;SDS011;59039;52.108;19.942;2024-03-02T03:22:56;46.20;;;26.40;;
60919;SDS011;59039;52.108;19.942;2024-03-02T03:25:22;45.70;;;23.30;;
60919;SDS011;59039;52.108;19.942;2024-03-02T03:27:47;49.00;;;25.60;;
60919;SDS011;59039;52.108;19.942;2024-03-02T03:30:13;44.00;;;23.50;;
60919;SDS011;59039;52.108;19.942;2024-03-02T03:32:38;45.10;;;23.20;;
60919;SDS011;59039;52.108;19.942;2024-03-02T03:35:03;41.20;;;22.30;;
60919;SDS011;59039;52.108;19.942;2024-03-02T03:37:29;40.20;;;23.70;;
60919;SDS011;59039;52.108;19.942;2024-03-02T03:39:54;44.30;;;22.10;;
60919;SDS011;59039;52.108;19.942;2024-03-02T03:42:20;45.50;;;21.90;;
60919;SDS011;59039;52.108;19.942;2024-03-02T03:44:45;45.10;;;23.50;;
60919;SDS011;59039;52.108;19.942;2024-03-02T03:47:10;42.10;;;23.00;;
60919;SDS011;59039;52.108;19.942;2024-03-02T03:49:35;40.00;;;21.90;;
60919;SDS011;59039;52.108;19.942;2024-03-02T03:52:00;42.30;;;21.80;;
60919;SDS011;59039;52.108;19.942;2024-03-02T03:54:26;42.10;;;21.80;;
60919;SDS011;59039;52.108;19.942;2024-03-02T03:56:51;40.20;;;21.80;;
60919;SDS011;59039;52.108;19.942;2024-03-02T03:59:16;40.50;;;21.50;;
60919;SDS011;59039;52.108;19.942;2024-03-02T04:01:41;36.70;;;20.30;;
60919;SDS011;59039;52.108;19.942;2024-03-02T04:04:06;39.50;;;22.40;;
60919;SDS011;59039;52.108;19.942;2024-03-02T04:06:32;43.20;;;24.20;;
60919;SDS011;59039;52.108;19.942;2024-03-02T04:08:57;43.40;;;23.20;;
60919;SDS011;59039;52.108;19.942;2024-03-02T04:11:22;46.50;;;22.90;;
60919;SDS011;59039;52.108;19.942;2024-03-02T04:13:47;42.60;;;23.10;;
60919;SDS011;59039;52.108;19.942;2024-03-02T04:16:13;44.10;;;22.80;;
60919;SDS011;59039;52.108;19.942;2024-03-02T04:18:38;42.10;;;22.30;;
60919;SDS011;59039;52.108;19.942;2024-03-02T04:21:03;42.20;;;23.50;;
60919;SDS011;59039;52.108;19.942;2024-03-02T04:23:28;44.60;;;23.90;;
60919;SDS011;59039;52.108;19.942;2024-03-02T04:25:53;40.80;;;22.30;;
60919;SDS011;59039;52.108;19.942;2024-03-02T04:28:19;41.80;;;23.00;;
60919;SDS011;59039;52.108;19.942;2024-03-02T04:30:44;50.50;;;23.50;;
60919;SDS011;59039;52.108;19.942;2024-03-02T04:33:09;45.90;;;23.50;;
60919;SDS011;59039;52.108;19.942;2024-03-02T04:35:34;39.30;;;20.30;;
60919;SDS011;59039;52.108;19.942;2024-03-02T04:37:59;43.90;;;23.60;;
60919;SDS011;59039;52.108;19.942;2024-03-02T04:40:25;48.70;;;23.50;;
60919;SDS011;59039;52.108;19.942;2024-03-02T04:42:50;42.00;;;23.00;;
60919;SDS011;59039;52.108;19.942;2024-03-02T04:45:15;39.50;;;22.50;;
60919;SDS011;59039;52.108;19.942;2024-03-02T04:47:40;38.80;;;22.60;;
60919;SDS011;59039;52.108;19.942;2024-03-02T04:50:06;38.90;;;21.40;;
60919;SDS011;59039;52.108;19.942;2024-03-02T04:52:31;43.10;;;22.30;;
60919;SDS011;59039;52.108;19.942;2024-03-02T04:54:56;45.10;;;24.70;;
60919;SDS011;59039;52.108;19.942;2024-03-02T04:57:22;48.70;;;24.30;;
60919;SDS011;59039;52.108;19.942;2024-03-02T04:59:47;39.10;;;21.90;;
60919;SDS011;59039;52.108;19.942;2024-03-02T05:02:12;46.10;;;23.80;;
60919;SDS011;59039;52.108;19.942;2024-03-02T05:04:37;45.70;;;24.00;;
60919;SDS011;59039;52.108;19.942;2024-03-02T05:07:02;47.00;;;25.00;;
60919;SDS011;59039;52.108;19.942;2024-03-02T05:09:28;48.00;;;24.40;;
60919;SDS011;59039;52.108;19.942;2024-03-02T05:11:53;45.00;;;23.20;;
60919;SDS011;59039;52.108;19.942;2024-03-02T05:14:18;45.50;;;23.80;;
60919;SDS011;59039;52.108;19.942;2024-03-02T05:16:43;46.20;;;23.80;;
60919;SDS011;59039;52.108;19.942;2024-03-02T05:19:08;47.80;;;25.30;;
60919;SDS011;59039;52.108;19.942;2024-03-02T05:21:34;43.30;;;23.70;;
60919;SDS011;59039;52.108;19.942;2024-03-02T05:23:59;42.40;;;22.80;;
60919;SDS011;59039;52.108;19.942;2024-03-02T05:26:25;46.20;;;24.40;;
60919;SDS011;59039;52.108;19.942;2024-03-02T05:28:50;43.40;;;25.20;;
60919;SDS011;59039;52.108;19.942;2024-03-02T05:31:15;49.20;;;24.60;;
60919;SDS011;59039;52.108;19.942;2024-03-02T05:33:41;44.00;;;23.00;;
60919;SDS011;59039;52.108;19.942;2024-03-02T05:36:06;46.40;;;23.20;;
60919;SDS011;59039;52.108;19.942;2024-03-02T05:38:32;52.10;;;24.90;;
60919;SDS011;59039;52.108;19.942;2024-03-02T05:40:59;48.00;;;24.70;;
60919;SDS011;59039;52.108;19.942;2024-03-02T05:43:24;48.70;;;24.60;;
60919;SDS011;59039;52.108;19.942;2024-03-02T05:45:50;49.60;;;24.90;;
60919;SDS011;59039;52.108;19.942;2024-03-02T05:48:15;52.40;;;25.00;;
60919;SDS011;59039;52.108;19.942;2024-03-02T05:50:40;54.40;;;26.10;;
60919;SDS011;59039;52.108;19.942;2024-03-02T05:53:05;50.60;;;25.40;;
60919;SDS011;59039;52.108;19.942;2024-03-02T05:55:31;47.80;;;25.40;;
60919;SDS011;59039;52.108;19.942;2024-03-02T05:57:56;53.30;;;25.80;;
60919;SDS011;59039;52.108;19.942;2024-03-02T06:00:21;50.80;;;25.70;;
60919;SDS011;59039;52.108;19.942;2024-03-02T06:02:46;56.60;;;27.60;;
60919;SDS011;59039;52.108;19.942;2024-03-02T06:05:12;57.70;;;28.10;;
60919;SDS011;59039;52.108;19.942;2024-03-02T06:07:37;54.10;;;26.80;;
60919;SDS011;59039;52.108;19.942;2024-03-02T06:10:02;56.30;;;27.20;;
60919;SDS011;59039;52.108;19.942;2024-03-02T06:12:28;53.90;;;27.20;;
60919;SDS011;59039;52.108;19.942;2024-03-02T06:14:55;59.70;;;26.70;;
60919;SDS011;59039;52.108;19.942;2024-03-02T06:17:20;55.80;;;27.80;;
60919;SDS011;59039;52.108;19.942;2024-03-02T06:19:46;56.30;;;27.00;;
60919;SDS011;59039;52.108;19.942;2024-03-02T06:22:11;52.10;;;26.00;;
60919;SDS011;59039;52.108;19.942;2024-03-02T06:24:36;54.20;;;27.10;;
60919;SDS011;59039;52.108;19.942;2024-03-02T06:27:02;51.00;;;26.10;;
60919;SDS011;59039;52.108;19.942;2024-03-02T06:29:27;53.50;;;25.80;;
60919;SDS011;59039;52.108;19.942;2024-03-02T06:31:52;63.10;;;27.20;;
60919;SDS011;59039;52.108;19.942;2024-03-02T06:34:17;62.60;;;28.30;;
60919;SDS011;59039;52.108;19.942;2024-03-02T06:36:43;55.80;;;27.60;;
60919;SDS011;59039;52.108;19.942;2024-03-02T06:39:08;53.90;;;27.70;;
60919;SDS011;59039;52.108;19.942;2024-03-02T06:41:33;55.20;;;26.60;;
60919;SDS011;59039;52.108;19.942;2024-03-02T06:43:58;58.80;;;27.40;;
60919;SDS011;59039;52.108;19.942;2024-03-02T06:46:24;60.50;;;29.40;;
60919;SDS011;59039;52.108;19.942;2024-03-02T06:48:49;63.90;;;29.30;;
60919;SDS011;59039;52.108;19.942;2024-03-02T06:51:14;59.20;;;29.30;;
60919;SDS011;59039;52.108;19.942;2024-03-02T06:53:39;62.10;;;30.50;;
60919;SDS011;59039;52.108;19.942;2024-03-02T06:56:04;60.40;;;28.00;;
60919;SDS011;59039;52.108;19.942;2024-03-02T06:58:31;57.30;;;27.90;;
60919;SDS011;59039;52.108;19.942;2024-03-02T07:00:56;55.30;;;26.20;;
60919;SDS011;59039;52.108;19.942;2024-03-02T07:03:22;57.70;;;28.60;;
60919;SDS011;59039;52.108;19.942;2024-03-02T07:05:47;56.80;;;27.70;;
60919;SDS011;59039;52.108;19.942;2024-03-02T07:08:12;54.80;;;27.30;;
60919;SDS011;59039;52.108;19.942;2024-03-02T07:10:37;56.40;;;27.60;;
60919;SDS011;59039;52.108;19.942;2024-03-02T07:13:02;63.40;;;29.70;;
60919;SDS011;59039;52.108;19.942;2024-03-02T07:15:28;63.20;;;29.80;;
60919;SDS011;59039;52.108;19.942;2024-03-02T07:17:53;58.30;;;27.80;;
60919;SDS011;59039;52.108;19.942;2024-03-02T07:20:18;64.10;;;28.10;;
60919;SDS011;59039;52.108;19.942;2024-03-02T07:22:44;65.50;;;31.00;;
60919;SDS011;59039;52.108;19.942;2024-03-02T07:25:09;66.80;;;28.90;;
60919;SDS011;59039;52.108;19.942;2024-03-02T07:27:34;65.20;;;28.50;;
60919;SDS011;59039;52.108;19.942;2024-03-02T07:29:59;64.20;;;29.90;;
60919;SDS011;59039;52.108;19.942;2024-03-02T07:32:24;67.50;;;31.80;;
60919;SDS011;59039;52.108;19.942;2024-03-02T07:34:50;74.90;;;31.60;;
60919;SDS011;59039;52.108;19.942;2024-03-02T07:37:15;69.90;;;32.90;;
60919;SDS011;59039;52.108;19.942;2024-03-02T07:39:40;70.00;;;33.50;;
60919;SDS011;59039;52.108;19.942;2024-03-02T07:42:05;75.10;;;33.90;;
60919;SDS011;59039;52.108;19.942;2024-03-02T07:44:31;75.80;;;33.80;;
60919;SDS011;59039;52.108;19.942;2024-03-02T07:46:56;72.60;;;32.60;;
60919;SDS011;59039;52.108;19.942;2024-03-02T07:49:21;72.90;;;33.30;;
60919;SDS011;59039;52.108;19.942;2024-03-02T07:51:46;68.60;;;31.40;;
60919;SDS011;59039;52.108;19.942;2024-03-02T07:54:12;70.10;;;32.20;;
60919;SDS011;59039;52.108;19.942;2024-03-02T07:56:37;76.80;;;32.70;;
60919;SDS011;59039;52.108;19.942;2024-03-02T07:59:03;75.90;;;34.10;;
60919;SDS011;59039;52.108;19.942;2024-03-02T08:01:28;75.90;;;33.90;;
60919;SDS011;59039;52.108;19.942;2024-03-02T08:03:54;72.20;;;33.20;;
60919;SDS011;59039;52.108;19.942;2024-03-02T08:06:19;67.00;;;31.70;;
60919;SDS011;59039;52.108;19.942;2024-03-02T08:08:45;75.70;;;32.50;;
60919;SDS011;59039;52.108;19.942;2024-03-02T08:11:10;65.80;;;30.70;;
60919;SDS011;59039;52.108;19.942;2024-03-02T08:13:35;68.80;;;32.30;;
60919;SDS011;59039;52.108;19.942;2024-03-02T08:16:00;67.60;;;31.50;;
60919;SDS011;59039;52.108;19.942;2024-03-02T08:18:26;74.40;;;32.80;;
60919;SDS011;59039;52.108;19.942;2024-03-02T08:20:51;80.30;;;38.10;;
60919;SDS011;59039;52.108;19.942;2024-03-02T08:23:16;78.40;;;34.20;;
60919;SDS011;59039;52.108;19.942;2024-03-02T08:25:42;71.70;;;34.20;;
60919;SDS011;59039;52.108;19.942;2024-03-02T08:28:07;68.10;;;30.60;;
60919;SDS011;59039;52.108;19.942;2024-03-02T08:30:32;70.30;;;33.70;;
60919;SDS011;59039;52.108;19.942;2024-03-02T08:32:58;67.20;;;32.30;;
60919;SDS011;59039;52.108;19.942;2024-03-02T08:35:23;80.20;;;33.20;;
60919;SDS011;59039;52.108;19.942;2024-03-02T08:37:48;73.40;;;34.50;;
60919;SDS011;59039;52.108;19.942;2024-03-02T08:40:13;78.70;;;34.00;;
60919;SDS011;59039;52.108;19.942;2024-03-02T08:42:39;74.90;;;33.50;;
60919;SDS011;59039;52.108;19.942;2024-03-02T08:45:06;69.00;;;31.80;;
60919;SDS011;59039;52.108;19.942;2024-03-02T08:47:31;78.30;;;34.10;;
60919;SDS011;59039;52.108;19.942;2024-03-02T08:49:57;76.10;;;33.30;;
60919;SDS011;59039;52.108;19.942;2024-03-02T08:52:22;72.70;;;33.40;;
60919;SDS011;59039;52.108;19.942;2024-03-02T08:54:47;75.00;;;32.40;;
60919;SDS011;59039;52.108;19.942;2024-03-02T08:57:12;81.50;;;35.90;;
60919;SDS011;59039;52.108;19.942;2024-03-02T08:59:38;76.70;;;33.50;;
60919;SDS011;59039;52.108;19.942;2024-03-02T09:02:03;83.10;;;33.80;;
60919;SDS011;59039;52.108;19.942;2024-03-02T09:04:29;80.10;;;35.00;;
60919;SDS011;59039;52.108;19.942;2024-03-02T09:06:54;78.20;;;35.60;;
60919;SDS011;59039;52.108;19.942;2024-03-02T09:09:19;92.80;;;37.80;;
60919;SDS011;59039;52.108;19.942;2024-03-02T09:11:45;72.70;;;32.40;;
60919;SDS011;59039;52.108;19.942;2024-03-02T09:14:11;78.80;;;33.30;;
60919;SDS011;59039;52.108;19.942;2024-03-02T09:16:36;72.40;;;33.80;;
60919;SDS011;59039;52.108;19.942;2024-03-02T09:19:02;80.30;;;35.20;;
60919;SDS011;59039;52.108;19.942;2024-03-02T09:21:27;81.60;;;35.60;;
60919;SDS011;59039;52.108;19.942;2024-03-02T09:23:52;85.90;;;35.10;;
60919;SDS011;59039;52.108;19.942;2024-03-02T09:26:17;80.10;;;35.90;;
60919;SDS011;59039;52.108;19.942;2024-03-02T09:28:43;72.50;;;34.20;;
60919;SDS011;59039;52.108;19.942;2024-03-02T09:31:08;76.20;;;33.80;;
60919;SDS011;59039;52.108;19.942;2024-03-02T09:33:33;82.10;;;36.80;;
60919;SDS011;59039;52.108;19.942;2024-03-02T09:35:58;82.00;;;35.10;;
60919;SDS011;59039;52.108;19.942;2024-03-02T09:38:24;80.80;;;36.30;;
60919;SDS011;59039;52.108;19.942;2024-03-02T09:40:49;78.70;;;36.70;;
60919;SDS011;59039;52.108;19.942;2024-03-02T09:43:14;91.40;;;39.50;;
60919;SDS011;59039;52.108;19.942;2024-03-02T09:45:39;82.80;;;36.90;;
60919;SDS011;59039;52.108;19.942;2024-03-02T09:48:05;81.80;;;36.10;;
60919;SDS011;59039;52.108;19.942;2024-03-02T09:50:30;89.50;;;35.10;;
60919;SDS011;59039;52.108;19.942;2024-03-02T09:52:56;88.00;;;38.00;;
60919;SDS011;59039;52.108;19.942;2024-03-02T09:55:21;78.30;;;35.30;;
60919;SDS011;59039;52.108;19.942;2024-03-02T09:57:46;84.30;;;37.40;;
60919;SDS011;59039;52.108;19.942;2024-03-02T10:00:12;79.80;;;35.40;;
60919;SDS011;59039;52.108;19.942;2024-03-02T10:02:37;79.80;;;35.20;;
60919;SDS011;59039;52.108;19.942;2024-03-02T10:05:03;82.90;;;36.30;;
60919;SDS011;59039;52.108;19.942;2024-03-02T10:07:28;89.20;;;36.70;;
60919;SDS011;59039;52.108;19.942;2024-03-02T10:09:53;88.60;;;36.70;;
60919;SDS011;59039;52.108;19.942;2024-03-02T10:12:18;97.90;;;38.90;;
60919;SDS011;59039;52.108;19.942;2024-03-02T10:14:44;89.20;;;41.00;;
60919;SDS011;59039;52.108;19.942;2024-03-02T10:17:10;89.50;;;39.70;;
60919;SDS011;59039;52.108;19.942;2024-03-02T10:19:37;84.50;;;37.80;;
60919;SDS011;59039;52.108;19.942;2024-03-02T10:22:06;94.10;;;41.40;;
60919;SDS011;59039;52.108;19.942;2024-03-02T10:27:02;94.70;;;39.50;;
60919;SDS011;59039;52.108;19.942;2024-03-02T10:29:29;103.10;;;40.80;;
60919;SDS011;59039;52.108;19.942;2024-03-02T10:31:55;102.20;;;41.00;;
60919;SDS011;59039;52.108;19.942;2024-03-02T10:34:21;98.60;;;38.00;;
60919;SDS011;59039;52.108;19.942;2024-03-02T10:36:46;97.60;;;41.30;;
60919;SDS011;59039;52.108;19.942;2024-03-02T10:39:12;90.20;;;39.30;;
60919;SDS011;59039;52.108;19.942;2024-03-02T10:41:38;101.20;;;42.80;;
60919;SDS011;59039;52.108;19.942;2024-03-02T10:44:07;104.60;;;41.90;;
60919;SDS011;59039;52.108;19.942;2024-03-02T10:46:34;107.20;;;44.30;;
60919;SDS011;59039;52.108;19.942;2024-03-02T10:49:01;101.20;;;42.80;;
60919;SDS011;59039;52.108;19.942;2024-03-02T10:51:27;101.00;;;41.10;;
60919;SDS011;59039;52.108;19.942;2024-03-02T10:53:53;116.10;;;43.20;;
60919;SDS011;59039;52.108;19.942;2024-03-02T10:56:30;105.00;;;41.20;;
60919;SDS011;59039;52.108;19.942;2024-03-02T10:59:01;99.10;;;39.10;;
60919;SDS011;59039;52.108;19.942;2024-03-02T11:01:31;103.70;;;40.80;;
60919;SDS011;59039;52.108;19.942;2024-03-02T11:03:57;107.20;;;41.40;;
60919;SDS011;59039;52.108;19.942;2024-03-02T11:06:24;115.40;;;43.40;;
60919;SDS011;59039;52.108;19.942;2024-03-02T11:08:52;112.20;;;41.70;;
60919;SDS011;59039;52.108;19.942;2024-03-02T11:11:21;111.90;;;41.50;;
60919;SDS011;59039;52.108;19.942;2024-03-02T11:13:53;112.10;;;42.00;;
60919;SDS011;59039;52.108;19.942;2024-03-02T11:18:58;113.40;;;42.70;;
60919;SDS011;59039;52.108;19.942;2024-03-02T11:21:24;108.30;;;41.60;;
60919;SDS011;59039;52.108;19.942;2024-03-02T11:23:50;116.70;;;44.80;;
60919;SDS011;59039;52.108;19.942;2024-03-02T11:26:18;119.10;;;45.30;;
60919;SDS011;59039;52.108;19.942;2024-03-02T11:28:47;129.60;;;47.80;;
60919;SDS011;59039;52.108;19.942;2024-03-02T11:31:13;124.90;;;46.40;;
60919;SDS011;59039;52.108;19.942;2024-03-02T11:33:38;113.50;;;44.40;;
60919;SDS011;59039;52.108;19.942;2024-03-02T11:36:03;104.70;;;40.70;;
60919;SDS011;59039;52.108;19.942;2024-03-02T11:38:31;125.60;;;44.20;;
60919;SDS011;59039;52.108;19.942;2024-03-02T11:40:59;109.20;;;42.80;;
60919;SDS011;59039;52.108;19.942;2024-03-02T11:43:30;112.80;;;43.40;;
60919;SDS011;59039;52.108;19.942;2024-03-02T11:46:03;112.30;;;43.30;;
60919;SDS011;59039;52.108;19.942;2024-03-02T11:48:29;110.90;;;42.50;;
60919;SDS011;59039;52.108;19.942;2024-03-02T11:50:57;135.90;;;56.90;;
60919;SDS011;59039;52.108;19.942;2024-03-02T11:53:23;119.80;;;46.50;;
60919;SDS011;59039;52.108;19.942;2024-03-02T11:55:49;109.40;;;43.10;;
60919;SDS011;59039;52.108;19.942;2024-03-02T11:58:15;118.40;;;45.10;;
60919;SDS011;59039;52.108;19.942;2024-03-02T12:00:41;117.30;;;45.20;;
60919;SDS011;59039;52.108;19.942;2024-03-02T12:03:07;113.90;;;45.30;;
60919;SDS011;59039;52.108;19.942;2024-03-02T12:05:34;112.10;;;42.70;;
60919;SDS011;59039;52.108;19.942;2024-03-02T12:08:03;112.10;;;42.50;;
60919;SDS011;59039;52.108;19.942;2024-03-02T12:10:30;111.20;;;44.30;;
60919;SDS011;59039;52.108;19.942;2024-03-02T12:15:25;124.10;;;43.60;;
60919;SDS011;59039;52.108;19.942;2024-03-02T12:17:55;114.60;;;44.60;;
60919;SDS011;59039;52.108;19.942;2024-03-02T12:20:21;105.10;;;43.20;;
60919;SDS011;59039;52.108;19.942;2024-03-02T12:22:46;110.70;;;45.40;;
60919;SDS011;59039;52.108;19.942;2024-03-02T12:25:12;107.40;;;44.20;;
60919;SDS011;59039;52.108;19.942;2024-03-02T12:27:38;101.30;;;40.70;;
60919;SDS011;59039;52.108;19.942;2024-03-02T12:30:05;98.10;;;41.20;;
60919;SDS011;59039;52.108;19.942;2024-03-02T12:32:31;105.00;;;42.60;;
60919;SDS011;59039;52.108;19.942;2024-03-02T12:34:56;111.00;;;45.10;;
60919;SDS011;59039;52.108;19.942;2024-03-02T12:37:21;107.30;;;41.80;;
60919;SDS011;59039;52.108;19.942;2024-03-02T12:39:46;105.60;;;46.10;;
60919;SDS011;59039;52.108;19.942;2024-03-02T12:42:12;111.70;;;46.10;;
60919;SDS011;59039;52.108;19.942;2024-03-02T12:44:37;107.10;;;42.10;;
60919;SDS011;59039;52.108;19.942;2024-03-02T12:47:02;120.70;;;45.50;;
60919;SDS011;59039;52.108;19.942;2024-03-02T12:49:27;118.60;;;47.40;;
60919;SDS011;59039;52.108;19.942;2024-03-02T12:51:53;115.20;;;47.20;;
60919;SDS011;59039;52.108;19.942;2024-03-02T12:54:18;102.80;;;44.10;;
60919;SDS011;59039;52.108;19.942;2024-03-02T12:56:47;120.70;;;48.10;;
60919;SDS011;59039;52.108;19.942;2024-03-02T12:59:19;115.80;;;48.80;;
60919;SDS011;59039;52.108;19.942;2024-03-02T13:01:55;106.50;;;44.70;;
60919;SDS011;59039;52.108;19.942;2024-03-02T13:04:27;117.00;;;43.60;;
60919;SDS011;59039;52.108;19.942;2024-03-02T13:09:19;109.50;;;43.90;;
60919;SDS011;59039;52.108;19.942;2024-03-02T13:11:45;116.40;;;47.40;;
60919;SDS011;59039;52.108;19.942;2024-03-02T13:14:10;109.10;;;42.40;;
60919;SDS011;59039;52.108;19.942;2024-03-02T13:16:39;101.40;;;41.80;;
60919;SDS011;59039;52.108;19.942;2024-03-02T13:19:07;116.10;;;44.70;;
60919;SDS011;59039;52.108;19.942;2024-03-02T13:21:32;125.80;;;47.50;;
60919;SDS011;59039;52.108;19.942;2024-03-02T13:23:58;125.90;;;50.20;;
60919;SDS011;59039;52.108;19.942;2024-03-02T13:26:23;122.30;;;47.80;;
60919;SDS011;59039;52.108;19.942;2024-03-02T13:28:48;111.30;;;46.50;;
60919;SDS011;59039;52.108;19.942;2024-03-02T13:31:13;108.80;;;46.60;;
60919;SDS011;59039;52.108;19.942;2024-03-02T13:33:38;111.90;;;46.00;;
60919;SDS011;59039;52.108;19.942;2024-03-02T13:36:04;116.40;;;46.80;;
60919;SDS011;59039;52.108;19.942;2024-03-02T13:38:29;125.40;;;50.10;;
60919;SDS011;59039;52.108;19.942;2024-03-02T13:40:54;112.50;;;44.60;;
60919;SDS011;59039;52.108;19.942;2024-03-02T13:43:20;119.90;;;47.00;;
60919;SDS011;59039;52.108;19.942;2024-03-02T13:45:45;116.30;;;47.50;;
60919;SDS011;59039;52.108;19.942;2024-03-02T13:48:10;122.30;;;49.70;;
60919;SDS011;59039;52.108;19.942;2024-03-02T13:50:35;118.50;;;45.60;;
60919;SDS011;59039;52.108;19.942;2024-03-02T13:53:00;122.20;;;47.00;;
60919;SDS011;59039;52.108;19.942;2024-03-02T13:55:26;115.30;;;47.50;;
60919;SDS011;59039;52.108;19.942;2024-03-02T13:57:51;114.70;;;45.00;;
60919;SDS011;59039;52.108;19.942;2024-03-02T14:00:16;102.80;;;41.70;;
60919;SDS011;59039;52.108;19.942;2024-03-02T14:02:42;101.40;;;41.70;;
60919;SDS011;59039;52.108;19.942;2024-03-02T14:05:08;120.30;;;48.30;;
60919;SDS011;59039;52.108;19.942;2024-03-02T14:07:33;113.50;;;45.30;;
60919;SDS011;59039;52.108;19.942;2024-03-02T14:09:58;117.70;;;49.70;;